Flight Track Log - Related Links

Times and Time Zones

All times are in EDT time to prevent confusion due to time zone crossing. See the CPZ5750 flight status page for this flight to view local times or setup timezone preferences in your user account.

Time Position Orientation Groundspeed Altitude Reporting Facility
EDT Latitude Longitude Course Direction KTS MPH feet Rate Location/Type
Wed 07:52:37 PM 42.6983 -73.8356 222° Southwest 186 214 2,500  Level Boston Center
Wed 07:54:00 PM 42.8391 -74.3675 283° West  Level FlightAware Approximate
Wed 07:54:20 PM 42.7847 -73.9225 324° Northwest 260 299 6,200  Level Boston Center
Wed 07:55:00 PM 42.8631 -74.5120 283° West  Level FlightAware Approximate
Wed 07:55:20 PM 42.8464 -73.9778 327° Northwest 266 306 9,400  Level Boston Center
Wed 07:56:00 PM 42.8966 -74.6464 281° West  Level FlightAware Approximate
Wed 07:56:20 PM 42.9231 -74.0194 338° Northwest 266 306 12,100  Level Boston Center
Wed 07:57:00 PM 42.9165 -74.7922 281° West  Level FlightAware Approximate
Wed 07:57:20 PM 42.9936 -74.0325 352° North 278 320 14,000  Level Boston Center
Wed 07:58:20 PM 43.0508 -74.1250 310° West 278 320 15,700 1,250 Climbing Boston Center
Wed 07:59:20 PM 43.0572 -74.2358 275° West 278 320 16,500 1,150 Climbing Boston Center
Wed 08:00:20 PM 43.0675 -74.3869 275° West 346 398 18,000 1,650 Climbing Boston Center
Wed 08:01:20 PM 43.0733 -74.5264 273° West 370 426 19,800 1,750 Climbing Boston Center
Wed 08:02:20 PM 43.0808 -74.6689 274° West 370 426 21,500 1,550 Climbing Boston Center
Wed 08:03:20 PM 43.0906 -74.8142 275° West 375 432 22,900 1,400 Climbing Boston Center
Wed 08:04:20 PM 43.0978 -74.9567 274° West 381 438 24,300 1,400 Climbing Boston Center
Wed 08:05:20 PM 43.1069 -75.1050 275° West 387 445 25,700 1,150 Climbing Boston Center
Wed 08:06:20 PM 43.1139 -75.2531 274° West 387 445 26,600 950 Climbing Boston Center
Wed 08:07:20 PM 43.1203 -75.4072 273° West 393 452 27,600 800 Climbing Boston Center
Wed 08:08:20 PM 43.1292 -75.5442 275° West 399 459 28,200 800 Climbing Boston Center
Wed 08:09:20 PM 43.1394 -75.7011 275° West 410 472 29,200 1,050 Climbing Boston Center
Wed 08:10:20 PM 43.1872 -75.8489 294° West 410 472 30,300 1,100 Climbing Boston Center
Wed 08:11:20 PM 43.2372 -75.9858 297° West 410 472 31,400 950 Climbing Boston Center
Wed 08:12:20 PM 43.2872 -76.1228 297° West 410 472 32,200 800 Climbing Boston Center
Wed 08:13:20 PM 43.3389 -76.2658 296° West 410 472 33,000 900 Climbing Boston Center
Wed 08:14:20 PM 43.3861 -76.4031 295° West 410 472 34,000 500 Climbing Boston Center
Wed 08:15:20 PM 43.4378 -76.5411 297° West 410 472 34,000  Level Boston Center
Wed 08:16:20 PM 43.4861 -76.6961 293° West 410 472 34,000  Level Boston Center
Wed 08:17:20 PM 43.5353 -76.8342 296° West 410 472 34,000  Level Boston Center
Wed 08:19:41 PM 43.6333 -77.1167 296° West 400 460 34,000  Level Toronto Center
Wed 08:20:41 PM 43.6833 -77.2833 293° West 410 472 34,000  Level Toronto Center
Wed 08:21:41 PM 43.7333 -77.4167 297° West 410 472 34,000  Level Toronto Center
Wed 08:22:41 PM 43.7833 -77.5500 297° West 410 472 34,000  Level Toronto Center
Wed 08:23:41 PM 43.8333 -77.7167 293° West 410 472 34,000  Level Toronto Center
Wed 08:24:41 PM 43.8667 -77.8500 289° West 410 472 34,000  Level Toronto Center
Wed 08:25:41 PM 43.9167 -77.9833 298° West 410 472 34,000  Level Toronto Center
Wed 08:26:41 PM 43.9667 -78.1333 295° West 410 472 34,000  Level Toronto Center
Wed 08:27:41 PM 44.0167 -78.2833 295° West 420 483 34,000  Level Toronto Center
Wed 08:28:41 PM 44.0500 -78.4333 287° West 410 472 34,000  Level Toronto Center
Wed 08:29:41 PM 44.1167 -78.5667 305° West 410 472 34,000  Level Toronto Center
Wed 08:30:41 PM 44.1667 -78.7000 298° West 410 472 34,000  Level Toronto Center
Wed 08:31:41 PM 44.2000 -78.8667 286° West 410 472 34,000  Level Toronto Center
Wed 08:32:41 PM 44.2500 -79.0000 298° West 410 472 34,000  Level Toronto Center
Wed 08:33:41 PM 44.3000 -79.1500 295° West 410 472 34,000  Level Toronto Center
Wed 08:34:41 PM 44.3167 -79.3000 279° West 400 460 34,000  Level Toronto Center
Wed 08:35:41 PM 44.3333 -79.4500 279° West 390 449 34,000  Level Toronto Center
Wed 08:36:41 PM 44.3333 -79.6167 270° West 390 449 34,000  Level Toronto Center
Wed 08:37:41 PM 44.3500 -79.7500 280° West 390 449 34,000  Level Toronto Center
Wed 08:38:41 PM 44.3500 -79.9167 270° West 390 449 34,000  Level Toronto Center
Wed 08:39:41 PM 44.3667 -80.0500 280° West 390 449 34,000  Level Toronto Center
Wed 08:40:41 PM 44.3667 -80.2000 270° West 390 449 34,000  Level Toronto Center
Wed 08:41:41 PM 44.3833 -80.3500 279° West 390 449 34,000  Level Toronto Center
Wed 08:42:41 PM 44.3833 -80.5000 270° West 390 449 34,000  Level Toronto Center
Wed 08:43:41 PM 44.4000 -80.6667 278° West 390 449 34,000  Level Toronto Center
Wed 08:44:41 PM 44.4167 -80.8000 280° West 390 449 34,000  Level Toronto Center
Wed 08:45:41 PM 44.4000 -80.9667 262° West 390 449 34,000  Level Toronto Center
Wed 08:46:41 PM 44.4167 -81.1000 280° West 390 449 34,000  Level Toronto Center
Wed 08:47:41 PM 44.4167 -81.2667 270° West 390 449 34,000 500 Level Toronto Center
Wed 08:48:41 PM 44.4333 -81.4000 280° West 400 460 35,000 1,000 Climbing Toronto Center
Wed 08:49:41 PM 44.4333 -81.5500 270° West 380 437 36,000 500 Climbing Toronto Center
Wed 08:50:41 PM 44.4500 -81.7167 278° West 370 426 36,000  Level Toronto Center
Wed 08:51:41 PM 44.4500 -81.8500 270° West 370 426 36,000  Level Toronto Center
Wed 08:52:41 PM 44.4500 -82.0000 270° West 370 426 36,000  Level Toronto Center
Wed 08:53:41 PM 44.4667 -82.1333 280° West 370 426 36,000  Level Toronto Center
Wed 08:54:41 PM 44.4667 -82.2667 270° West 380 437 36,000  Level Toronto Center
Wed 08:55:41 PM 44.4833 -82.4333 278° West 370 426 36,000  Level Toronto Center
Wed 08:56:14 PM 44.4872 -82.5036 274° West 372 428 36,000  Level Minneapolis Center
Wed 08:57:28 PM 44.4908 -82.6467 272° West 371 427 36,000  Level Minneapolis Center
Wed 08:58:30 PM 44.4972 -82.7906 274° West 371 427 36,000  Level Minneapolis Center
Wed 08:59:33 PM 44.5028 -82.9928 272° West 372 428 36,000  Level Minneapolis Center
Wed 09:00:35 PM 44.5078 -83.1381 273° West 373 429 36,000  Level Minneapolis Center
Wed 09:01:37 PM 44.5131 -83.2814 273° West 371 427 36,000  Level Minneapolis Center
Wed 09:02:39 PM 44.5169 -83.4225 272° West 366 421 36,000  Level Minneapolis Center
Wed 09:03:53 PM 44.5206 -83.5633 272° West 364 419 36,000  Level Minneapolis Center
Wed 09:04:55 PM 44.5250 -83.7333 272° West 364 419 36,000  Level Minneapolis Center
Wed 09:05:57 PM 44.5308 -83.9025 273° West 365 420 36,000  Level Minneapolis Center
Wed 09:06:59 PM 44.5331 -84.0169 272° West 365 420 36,000  Level Minneapolis Center
Wed 09:08:01 PM 44.5369 -84.1881 272° West 367 422 36,000  Level Minneapolis Center
Wed 09:09:04 PM 44.5397 -84.3308 272° West 367 422 36,000  Level Minneapolis Center
Wed 09:10:06 PM 44.5431 -84.4744 272° West 369 425 36,000  Level Minneapolis Center
Wed 09:11:08 PM 44.5453 -84.6181 271° West 370 426 36,000  Level Minneapolis Center
Wed 09:12:10 PM 44.5492 -84.7897 272° West 369 425 36,000  Level Minneapolis Center
Wed 09:13:12 PM 44.5511 -84.9328 271° West 369 425 36,000  Level Minneapolis Center
Wed 09:14:14 PM 44.5531 -85.0758 271° West 367 422 36,000  Level Minneapolis Center
Wed 09:15:16 PM 44.5553 -85.2200 271° West 371 427 36,000  Level Minneapolis Center
Wed 09:16:30 PM 44.5575 -85.3650 271° West 372 428 36,000  Level Minneapolis Center
Wed 09:17:32 PM 44.5597 -85.5392 271° West 372 428 36,000  Level Minneapolis Center
Wed 09:18:34 PM 44.5608 -85.7158 271° West 377 434 36,000  Level Minneapolis Center
Wed 09:19:37 PM 44.5614 -85.8647 270° West 379 436 36,000  Level Minneapolis Center
Wed 09:20:39 PM 44.5622 -86.0122 271° West 377 434 36,000  Level Minneapolis Center
Wed 09:21:41 PM 44.5625 -86.1614 270° West 378 435 36,000  Level Minneapolis Center
Wed 09:22:43 PM 44.5633 -86.3092 271° West 377 434 36,000  Level Minneapolis Center
Wed 09:23:45 PM 44.5636 -86.4544 270° West 373 429 36,000  Level Minneapolis Center
Wed 09:24:47 PM 44.5642 -86.6011 270° West 375 432 36,000  Level Minneapolis Center
Wed 09:25:49 PM 44.5639 -86.7458 270° West 373 429 36,000  Level Minneapolis Center
Wed 09:26:51 PM 44.5631 -86.9222 270° West 375 432 36,000  Level Minneapolis Center
Wed 09:27:52 PM 44.5639 -87.0389 271° West 376 433 36,000  Level Minneapolis Center
Wed 09:28:55 PM 44.5636 -87.2147 270° West 376 433 36,000  Level Minneapolis Center
Wed 09:29:57 PM 44.5697 -87.3653 273° West 382 440 36,000  Level Minneapolis Center
Wed 09:30:59 PM 44.5869 -87.5158 279° West 389 448 36,000  Level Minneapolis Center
Wed 09:32:01 PM 44.6011 -87.6681 277° West 392 451 36,000  Level Minneapolis Center
Wed 09:33:03 PM 44.6186 -87.8567 277° West 404 465 36,000  Level Minneapolis Center
Wed 09:34:05 PM 44.6331 -88.0117 278° West 410 472 36,000  Level Minneapolis Center
Wed 09:35:06 PM 44.6486 -88.1775 278° West 424 488 36,000  Level Minneapolis Center
Wed 09:36:08 PM 44.6633 -88.3400 277° West 422 486 36,000  Level Minneapolis Center
Wed 09:37:22 PM 44.6817 -88.5603 277° West 428 493 36,000  Level Minneapolis Center
Wed 09:38:24 PM 44.6961 -88.7275 277° West 432 497 36,000  Level Minneapolis Center
Wed 09:39:26 PM 44.7103 -88.8986 277° West 439 505 36,000  Level Minneapolis Center
Wed 09:40:28 PM 44.7250 -89.0686 277° West 440 506 36,000  Level Minneapolis Center
Wed 09:41:30 PM 44.7383 -89.2400 276° West 441 507 36,000 -267 Level Minneapolis Center
Wed 09:42:43 PM 44.7556 -89.4403 277° West 442 509 35,400 -694 Descending Minneapolis Center
Wed 09:43:57 PM 44.7703 -89.6431 276° West 446 513 34,300 -1,015 Descending Minneapolis Center
Wed 09:44:59 PM 44.7856 -89.8458 276° West 449 517 33,100 -1,113 Descending Minneapolis Center
Wed 09:46:01 PM 44.8014 -90.0494 276° West 451 519 32,000 -532 Descending Minneapolis Center
Wed 09:47:03 PM 44.8153 -90.2236 276° West 448 516 32,000  Level Minneapolis Center
Wed 09:48:04 PM 44.8378 -90.4047 280° West 449 517 32,000  Level Minneapolis Center
Wed 09:49:06 PM 44.8547 -90.5511 279° West 447 514 32,000  Level Minneapolis Center
Wed 09:50:08 PM 44.8800 -90.7586 280° West 448 516 32,000 -133 Level Minneapolis Center
Wed 09:51:21 PM 44.8989 -90.9217 279° West 450 518 31,700 -1,244 Descending Minneapolis Center
Wed 09:52:23 PM 44.9214 -91.1289 279° West 448 516 29,200 -2,516 Descending Minneapolis Center
Wed 09:53:25 PM 44.9411 -91.3000 279° West 446 513 26,500 -2,585 Descending Minneapolis Center
Wed 09:54:26 PM 44.9594 -91.4647 279° West 435 501 23,900 -2,780 Descending Minneapolis Center
Wed 09:55:28 PM 44.9794 -91.6544 279° West 416 479 20,800 -2,683 Descending Minneapolis Center
Wed 09:56:29 PM 44.9969 -91.8075 279° West 404 465 18,400 -2,293 Descending Minneapolis Center
Wed 09:57:31 PM 45.0142 -91.9569 279° West 386 444 16,100 -2,244 Descending Minneapolis Center
Wed 09:58:32 PM 45.0297 -92.0997 279° West 371 427 13,800 -2,195 Descending Minneapolis Center
Wed 09:59:34 PM 45.0433 -92.2383 278° West 360 414 11,600 -1,317 Descending Minneapolis Center
Wed 10:00:35 PM 45.0364 -92.3711 266° West 348 400 11,100 -293 Descending Minneapolis Center
Wed 10:01:37 PM 45.0150 -92.5033 257° West 347 399 11,000 -49 Descending Minneapolis Center
Wed 10:02:38 PM 44.9908 -92.6611 258° West 346 398 11,000 -98 Level Minneapolis Center
Wed 10:03:40 PM 44.9694 -92.7922 257° West 346 398 10,800 -488 Descending Minneapolis Center
Wed 10:04:41 PM 44.9492 -92.9139 257° West 320 368 10,000 -1,268 Descending Minneapolis Center
Wed 10:05:43 PM 44.9322 -93.0197 257° West 284 327 8,200 -1,171 Descending Minneapolis Center
Wed 10:06:44 PM 44.9472 -93.1125 283° West 251 289 7,600 -1,317 Descending Minneapolis Center
Wed 10:07:46 PM 44.9814 -93.1875 303° West 230 265 5,500 -1,756 Descending Minneapolis Center
Wed 10:08:47 PM 45.0219 -93.2783 302° West 231 266 4,000 -1,024 Descending Minneapolis Center
Wed 10:09:49 PM 44.9953 -93.3319 235° Southwest 216 249 3,400 -829 Descending Minneapolis Center
Wed 10:10:50 PM 44.9447 -93.2983 155° Southeast 199 229 2,300 -927 Descending Minneapolis Center
Wed 10:11:52 PM 44.9114 -93.2653 145° Southeast 144 166 1,500 -774 Descending Minneapolis Center

Login

Don't have an account? Register now (free) for customized features, flight alerts, and more!